Flugplatz Großenhain

Für EDAK sind keine METAR/TAF Berichte vorhanden.
Es werden die Flugwettermeldungen vom Flugplatz Dresden in 24 km Entfernung angezeigt.

Bericht für EDDC

vom 28.02. um 01:20 UTC

Wind 7 kt aus 320°

Sichtweite 3500 m

schwacher Schnee

aufgebrochene Bewölkung in 300 ft

Temperatur 0.0°C

Taupunkt 0.0°C

Luftfeuchtigkeit 100%

Luftdruck 1004 hPa

EDDC 280120Z 32007KT 3500 -SN BKN003 00/00 Q1004 RESN

Prognose für EDDC

vom 27.02. um 00:00 UTC

Zwischen 00:00 UTC und 00:00 UTC

Wind 7 kt aus 360°

Sichtweite 6000 m

aufgebrochene Bewölkung in 1500 ft


Zwischen 00:00 UTC und 00:00 UTC zeitweise mit einer Wahrscheinlichkeit von 30%

Sichtweite 1400 m

Schnee

aufgebrochene Bewölkung in 300 ft


Zwischen 00:00 UTC und 00:00 UTC zeitweise

Sichtweite 4000 m

schwacher Schnee

schwacher Regen

aufgebrochene Bewölkung in 800 ft


Zwischen 00:00 und 00:00 UTC übergehend zu

Wind 8 kt aus 290°

Sichtweite 6000 m

aufgebrochene Bewölkung in 1500 ft


Zwischen 00:00 und 00:00 UTC übergehend zu

Wind 15 kt aus 280° in Böen 25 kt

Sichtweite 6000 m

aufgebrochene Bewölkung in 1500 ft


Zwischen 00:00 und 00:00 UTC übergehend zu

Wind 9 kt aus 210°

Sichtweite 6000 m

aufgebrochene Bewölkung in 1500 ft

TAF EDDC 272300Z 2800/2824 36007KT 6000 BKN015 TEMPO 2800/2810 4000 -SNRA BKN008 PROB30 TEMPO 2800/2807 1400 SN BKN003 BECMG 2801/2804 29008KT BECMG 2808/2811 28015G25KT BECMG 2815/2818 21009KT
Impressum